Time;durP1;ratioP1;P1;durP2;ratioP2;P2;SDS_P1;SDS_P2;PMS_P1;PMS_P2;Temp;Humidity;BMP_temperature;BMP_pressure;BME280_temperature;BME280_humidity;BME280_pressure;Samples;Min_cycle;Max_cycle;Signal;HPM_P1;HPM_P2
2022/01/07 00:01:30;;;;;;;1.98;1.00;;;;;;;-0.96;53.05;92903.91;2075075;69;20583;-69
2022/01/07 00:03:56;;;;;;;1.38;0.82;;;;;;;-1.18;52.06;92905.06;2075341;69;20352;-68
2022/01/07 00:06:22;;;;;;;2.15;0.80;;;;;;;-1.20;52.02;92899.28;2074989;69;20143;-68
2022/01/07 00:08:48;;;;;;;3.72;0.98;;;;;;;-1.40;50.84;92900.66;2074651;69;20156;-68
2022/01/07 00:11:14;;;;;;;3.35;1.00;;;;;;;-1.28;51.72;92898.47;2075168;69;20197;-71
2022/01/07 00:13:40;;;;;;;1.77;0.95;;;;;;;-1.19;51.52;92891.75;2075237;69;20176;-68
2022/01/07 00:16:11;;;;;;;1.85;0.80;;;;;;;-1.20;51.26;92888.25;2075386;69;20564;-71
2022/01/07 00:18:39;;;;;;;2.72;0.90;;;;;;;-1.17;50.76;92886.44;2075476;69;20262;-70
2022/01/07 00:21:05;;;;;;;1.02;0.90;;;;;;;-1.21;50.85;92891.53;2075237;69;20143;-68
2022/01/07 00:23:31;;;;;;;1.40;0.90;;;;;;;-1.17;52.81;92887.19;2075509;69;20140;-68
2022/01/07 00:25:57;;;;;;;1.45;0.95;;;;;;;-1.35;52.20;92882.50;2071644;69;20888;-69
2022/01/07 00:28:22;;;;;;;2.13;1.00;;;;;;;-1.36;52.00;92883.78;2074794;69;20143;-72
2022/01/07 00:30:48;;;;;;;2.50;1.00;;;;;;;-1.22;52.60;92890.06;2071547;69;20515;-72
2022/01/07 00:33:14;;;;;;;1.63;1.00;;;;;;;-1.43;51.68;92893.41;2074688;69;20220;-79
2022/01/07 00:35:41;;;;;;;2.70;0.90;;;;;;;-1.44;51.41;92885.69;2074923;69;20171;-80
2022/01/07 00:38:07;;;;;;;1.58;1.10;;;;;;;-1.67;51.36;92896.34;2071415;69;20148;-79
2022/01/07 00:40:32;;;;;;;2.95;0.93;;;;;;;-1.49;51.37;92892.78;2074692;69;20193;-80
2022/01/07 00:42:58;;;;;;;1.88;0.80;;;;;;;-1.31;51.87;92900.25;2075263;69;20583;-77
2022/01/07 00:45:25;;;;;;;0.80;0.80;;;;;;;-1.32;51.24;92898.75;2075303;69;20689;-75
2022/01/07 00:47:52;;;;;;;1.10;0.82;;;;;;;-1.44;51.29;92910.53;2075148;69;20191;-70
2022/01/07 00:50:20;;;;;;;1.23;0.70;;;;;;;-1.72;51.57;92900.69;2068874;69;20529;-72
2022/01/07 00:52:46;;;;;;;1.40;1.00;;;;;;;-1.61;51.08;92908.78;2075168;69;20664;-67
2022/01/07 00:55:12;;;;;;;1.25;1.00;;;;;;;-1.50;52.93;92907.88;2075178;69;20156;-67
2022/01/07 00:57:38;;;;;;;2.17;1.00;;;;;;;-1.42;51.78;92905.97;2074972;69;20249;-68
2022/01/07 01:00:07;;;;;;;1.92;0.95;;;;;;;-1.54;50.74;92905.41;2074957;69;20148;-72
2022/01/07 01:02:33;;;;;;;1.77;0.95;;;;;;;-1.41;51.56;92904.69;2075224;69;20148;-72
2022/01/07 01:04:59;;;;;;;2.33;1.00;;;;;;;-1.45;51.02;92903.53;2074940;69;20151;-68
2022/01/07 01:07:26;;;;;;;2.13;0.88;;;;;;;-1.59;51.89;92908.28;2075310;69;20143;-68
2022/01/07 01:09:52;;;;;;;1.05;0.80;;;;;;;-1.54;52.50;92918.47;2072028;69;20156;-70
2022/01/07 01:12:18;;;;;;;1.25;0.80;;;;;;;-1.61;51.70;92910.81;2075266;69;20136;-74
2022/01/07 01:14:43;;;;;;;1.65;0.70;;;;;;;-1.62;51.63;92912.81;2075111;69;20168;-72
2022/01/07 01:17:09;;;;;;;2.40;0.70;;;;;;;-1.67;52.36;92921.94;2075205;69;20498;-70
2022/01/07 01:19:37;;;;;;;1.98;0.85;;;;;;;-1.74;52.49;92919.81;2075144;69;20175;-72
2022/01/07 01:22:03;;;;;;;2.50;0.93;;;;;;;-1.63;52.36;92916.13;2075106;69;20217;-69
2022/01/07 01:24:29;;;;;;;2.35;1.00;;;;;;;-1.60;52.21;92918.56;2075137;69;20228;-73
2022/01/07 01:26:55;;;;;;;1.08;0.73;;;;;;;-1.76;52.31;92922.34;2075328;69;20160;-68
2022/01/07 01:29:22;;;;;;;2.10;0.90;;;;;;;-2.15;52.33;92918.16;2075089;69;20144;-68
2022/01/07 01:31:48;;;;;;;1.00;0.90;;;;;;;-1.81;51.35;92912.88;2074984;69;20148;-71
2022/01/07 01:34:14;;;;;;;2.53;0.93;;;;;;;-1.68;51.75;92914.19;2075170;69;20160;-76
2022/01/07 01:36:39;;;;;;;1.05;0.93;;;;;;;-1.70;53.07;92916.72;2074595;69;20193;-76
2022/01/07 01:39:05;;;;;;;3.05;1.00;;;;;;;-1.84;52.55;92911.16;2075096;69;20151;-76
2022/01/07 01:41:31;;;;;;;3.03;0.90;;;;;;;-1.98;51.90;92917.16;2071664;69;20148;-69
2022/01/07 01:43:58;;;;;;;1.98;0.90;;;;;;;-1.83;53.65;92920.94;2075039;69;20163;-68
2022/01/07 01:46:24;;;;;;;1.10;0.85;;;;;;;-1.89;52.63;92914.00;2075322;69;20626;-70
2022/01/07 01:48:51;;;;;;;1.77;1.00;;;;;;;-1.91;52.55;92920.06;2075374;69;20240;-70
2022/01/07 01:51:18;;;;;;;1.45;0.80;;;;;;;-2.21;52.87;92916.72;2075279;69;20156;-69
2022/01/07 01:53:45;;;;;;;2.40;1.00;;;;;;;-2.06;52.25;92911.50;2075244;69;20625;-68
2022/01/07 01:56:11;;;;;;;1.10;0.70;;;;;;;-2.30;52.25;92910.31;2075161;69;20132;-68
2022/01/07 01:58:37;;;;;;;1.20;0.80;;;;;;;-2.31;52.20;92895.03;2075332;69;20171;-68
2022/01/07 02:01:03;;;;;;;1.38;0.90;;;;;;;-2.33;52.85;92892.06;2075194;69;20212;-67
2022/01/07 02:03:30;;;;;;;0.80;0.70;;;;;;;-2.31;53.14;92897.81;2075261;69;20186;-68
2022/01/07 02:05:57;;;;;;;1.00;0.75;;;;;;;-2.05;53.52;92899.94;2068883;69;20144;-68
2022/01/07 02:08:24;;;;;;;2.45;0.80;;;;;;;-2.36;52.09;92897.88;2075283;69;20128;-79
2022/01/07 02:10:50;;;;;;;0.88;0.70;;;;;;;-2.12;52.14;92899.78;2074873;69;20146;-72
2022/01/07 02:13:16;;;;;;;1.00;0.88;;;;;;;-2.26;52.61;92907.25;2074806;69;20219;-70
2022/01/07 02:15:42;;;;;;;1.35;0.90;;;;;;;-2.57;52.92;92894.91;2074875;69;20160;-72
2022/01/07 02:18:08;;;;;;;1.00;0.90;;;;;;;-2.44;52.72;92900.47;2074944;69;20625;-75
2022/01/07 02:20:34;;;;;;;1.65;0.90;;;;;;;-2.34;52.25;92898.88;2074930;69;20155;-75
2022/01/07 02:23:01;;;;;;;2.90;0.80;;;;;;;-2.17;52.85;92895.84;2074900;69;20148;-79
2022/01/07 02:25:27;;;;;;;3.15;0.90;;;;;;;-2.12;52.72;92899.78;2074450;69;20578;-69
2022/01/07 02:27:53;;;;;;;2.38;0.98;;;;;;;-2.24;52.34;92890.97;2074871;69;20341;-68
2022/01/07 02:30:22;;;;;;;2.58;0.75;;;;;;;-2.38;52.64;92887.38;2074943;69;20162;-67
2022/01/07 02:32:48;;;;;;;0.68;0.60;;;;;;;-2.35;52.79;92880.06;2075043;69;20159;-69
2022/01/07 02:35:15;;;;;;;1.77;0.90;;;;;;;-2.24;53.45;92879.91;2075043;69;20242;-69
2022/01/07 02:37:40;;;;;;;1.50;0.90;;;;;;;-2.21;53.10;92880.88;2074975;69;20187;-76
2022/01/07 02:40:08;;;;;;;1.40;0.85;;;;;;;-2.28;51.91;92871.19;2074469;69;20325;-70
2022/01/07 02:42:34;;;;;;;1.17;0.85;;;;;;;-2.28;52.13;92865.69;2074324;69;20152;-76
2022/01/07 02:45:00;;;;;;;1.17;0.80;;;;;;;-2.40;52.55;92867.09;2075105;69;20143;-78
2022/01/07 02:47:30;;;;;;;1.25;0.98;;;;;;;-2.72;52.99;92864.28;2075117;69;20152;-74
2022/01/07 02:50:04;;;;;;;1.45;0.90;;;;;;;-2.51;52.86;92865.25;2074838;69;20144;-74
2022/01/07 02:52:30;;;;;;;1.27;0.82;;;;;;;-2.56;52.36;92877.84;2075108;69;20641;-79
2022/01/07 02:54:56;;;;;;;1.52;1.00;;;;;;;-2.39;52.66;92874.09;2075194;69;20239;-76
2022/01/07 02:57:22;;;;;;;1.55;0.88;;;;;;;-2.48;52.76;92871.72;2075081;69;20151;-70
2022/01/07 02:59:47;;;;;;;1.10;0.90;;;;;;;-2.41;52.49;92873.91;2075195;69;20155;-73
2022/01/07 03:02:13;;;;;;;1.50;0.82;;;;;;;-2.36;51.85;92868.28;2071797;69;20230;-71
2022/01/07 03:04:38;;;;;;;1.45;0.88;;;;;;;-2.53;51.58;92867.78;2075058;69;20148;-77
2022/01/07 03:07:04;;;;;;;1.27;0.95;;;;;;;-2.41;53.57;92871.13;2075109;69;20156;-76
2022/01/07 03:09:29;;;;;;;3.13;0.80;;;;;;;-2.51;52.02;92861.75;2075090;69;20172;-69
2022/01/07 03:11:55;;;;;;;2.50;1.08;;;;;;;-2.62;52.59;92865.41;2075162;69;20143;-72
2022/01/07 03:14:21;;;;;;;0.80;0.77;;;;;;;-2.65;52.01;92875.47;2075081;69;20141;-73
2022/01/07 03:16:46;;;;;;;0.80;0.75;;;;;;;-2.71;51.80;92869.25;2075054;69;20490;-73
2022/01/07 03:19:12;;;;;;;2.00;0.70;;;;;;;-2.92;51.81;92874.56;2075073;69;20605;-78
2022/01/07 03:21:37;;;;;;;1.20;0.70;;;;;;;-2.49;52.32;92862.72;2074942;69;20609;-78
2022/01/07 03:24:03;;;;;;;1.75;0.80;;;;;;;-2.80;52.06;92864.13;2075038;69;20518;-79
2022/01/07 03:26:29;;;;;;;0.98;0.70;;;;;;;-3.09;51.79;92860.97;2074994;69;20148;-69
2022/01/07 03:28:55;;;;;;;0.90;0.80;;;;;;;-2.63;51.61;92847.38;2071728;69;20623;-69
2022/01/07 03:31:20;;;;;;;0.90;0.60;;;;;;;-2.57;51.39;92851.56;2075052;69;20144;-69
2022/01/07 03:33:46;;;;;;;1.55;0.80;;;;;;;-2.74;52.00;92845.53;2075051;69;20156;-70
2022/01/07 03:36:12;;;;;;;0.70;0.70;;;;;;;-2.72;51.85;92851.25;2075048;69;20136;-68
2022/01/07 03:38:37;;;;;;;1.25;0.80;;;;;;;-2.57;51.46;92853.53;2075467;69;20176;-69
2022/01/07 03:41:03;;;;;;;1.05;0.70;;;;;;;-2.54;51.23;92860.78;2075559;69;20568;-69
2022/01/07 03:43:29;;;;;;;0.95;0.80;;;;;;;-2.55;51.93;92873.06;2075513;69;20616;-73
2022/01/07 03:45:55;;;;;;;1.17;0.63;;;;;;;-2.71;51.52;92866.50;2075569;69;20244;-76
2022/01/07 03:48:21;;;;;;;0.88;0.80;;;;;;;-2.67;51.17;92869.72;2075535;69;20690;-69
2022/01/07 03:50:46;;;;;;;1.98;0.80;;;;;;;-2.48;51.17;92861.44;2075366;69;20164;-74
2022/01/07 03:53:12;;;;;;;0.88;0.70;;;;;;;-2.53;50.97;92856.00;2075521;69;20156;-73
2022/01/07 03:55:37;;;;;;;0.70;0.70;;;;;;;-2.49;51.07;92846.16;2072069;69;20155;-68
2022/01/07 03:58:03;;;;;;;0.70;0.60;;;;;;;-2.50;50.99;92847.44;2075580;69;20221;-69
2022/01/07 04:00:37;;;;;;;1.42;0.90;;;;;;;-2.74;51.42;92850.28;2075487;69;20143;-69
2022/01/07 04:03:06;;;;;;;1.60;0.70;;;;;;;-2.90;52.80;92858.22;2075633;69;20256;-69
2022/01/07 04:05:32;;;;;;;2.03;0.75;;;;;;;-2.98;52.01;92854.56;2075421;69;20147;-69
2022/01/07 04:07:58;;;;;;;1.80;0.77;;;;;;;-2.86;51.80;92866.94;2072109;69;20162;-68
2022/01/07 04:10:23;;;;;;;1.73;0.70;;;;;;;-2.70;51.99;92858.97;2075503;69;20143;-69
2022/01/07 04:12:51;;;;;;;3.55;1.00;;;;;;;-2.73;52.46;92862.78;2075447;69;20230;-68
2022/01/07 04:15:18;;;;;;;1.88;0.70;;;;;;;-2.92;51.69;92866.28;2075482;69;20144;-77
2022/01/07 04:17:45;;;;;;;0.70;0.68;;;;;;;-2.81;51.75;92881.94;2075453;69;20171;-72
2022/01/07 04:20:13;;;;;;;1.48;0.70;;;;;;;-2.80;52.55;92880.66;2075423;69;20155;-73
2022/01/07 04:22:40;;;;;;;2.28;0.70;;;;;;;-2.78;52.43;92872.63;2075373;69;20654;-75
2022/01/07 04:25:09;;;;;;;1.90;0.93;;;;;;;-2.76;51.37;92870.09;2075455;69;20151;-75
2022/01/07 04:27:35;;;;;;;0.85;0.70;;;;;;;-2.82;51.11;92880.44;2075403;69;20178;-69
2022/01/07 04:30:02;;;;;;;0.60;0.60;;;;;;;-2.83;51.66;92874.19;2075473;69;20151;-75
2022/01/07 04:32:28;;;;;;;1.58;0.90;;;;;;;-3.20;52.37;92869.38;2075402;69;20232;-75
2022/01/07 04:34:53;;;;;;;1.20;0.60;;;;;;;-2.94;52.26;92870.81;2075408;69;20144;-75
2022/01/07 04:37:19;;;;;;;1.00;0.70;;;;;;;-3.34;51.75;92865.03;2075153;69;20140;-71
2022/01/07 04:39:45;;;;;;;1.27;0.80;;;;;;;-3.07;52.68;92865.94;2075535;69;20232;-72
2022/01/07 04:42:10;;;;;;;1.35;0.90;;;;;;;-2.87;51.92;92870.25;2075520;69;20136;-71
2022/01/07 04:44:40;;;;;;;0.73;0.70;;;;;;;-2.95;51.38;92867.31;2075549;69;20140;-69
2022/01/07 04:47:07;;;;;;;1.35;1.00;;;;;;;-2.89;51.47;92864.47;2075374;69;20147;-68
2022/01/07 04:49:33;;;;;;;0.77;0.77;;;;;;;-2.90;51.67;92866.50;2075165;69;20144;-72
2022/01/07 04:51:59;;;;;;;1.95;0.63;;;;;;;-2.83;51.39;92867.94;2075414;69;20202;-75
2022/01/07 04:54:25;;;;;;;3.08;1.70;;;;;;;-2.96;51.52;92873.34;2075440;69;20140;-76
2022/01/07 04:56:51;;;;;;;1.85;0.93;;;;;;;-2.86;51.71;92871.72;2075408;69;20155;-73
2022/01/07 04:59:16;;;;;;;3.47;1.50;;;;;;;-3.00;51.20;92889.41;2075338;69;20150;-69
2022/01/07 05:01:42;;;;;;;2.38;1.05;;;;;;;-2.81;51.54;92890.19;2075355;69;20140;-69
2022/01/07 05:04:08;;;;;;;3.63;0.73;;;;;;;-2.81;50.90;92884.69;2071923;69;20156;-68
2022/01/07 05:06:47;;;;;;;1.00;0.70;;;;;;;-2.79;50.80;92878.63;2075334;69;20147;-69
2022/01/07 05:09:16;;;;;;;1.02;0.70;;;;;;;-2.89;51.31;92867.25;2075331;69;20140;-68
2022/01/07 05:11:46;;;;;;;1.15;0.93;;;;;;;-2.98;51.70;92868.34;2075363;69;20180;-68
2022/01/07 05:14:12;;;;;;;2.35;1.08;;;;;;;-2.93;51.97;92869.53;2075350;69;20243;-69
2022/01/07 05:16:38;;;;;;;1.08;0.73;;;;;;;-3.01;52.48;92872.16;2075288;69;20538;-68
2022/01/07 05:19:04;;;;;;;1.27;0.90;;;;;;;-3.04;51.59;92873.19;2075326;69;20139;-69
2022/01/07 05:21:30;;;;;;;2.63;0.80;;;;;;;-2.88;52.33;92874.25;2075184;69;20525;-68
2022/01/07 05:23:56;;;;;;;4.10;2.80;;;;;;;-2.94;51.78;92877.06;2075329;69;20178;-69
2022/01/07 05:26:22;;;;;;;1.92;1.30;;;;;;;-3.19;52.06;92873.59;2075273;69;20238;-73
2022/01/07 05:28:50;;;;;;;1.33;1.00;;;;;;;-3.13;52.08;92873.53;2075274;69;20175;-75
2022/01/07 05:31:17;;;;;;;4.05;1.00;;;;;;;-3.29;52.16;92869.72;2075405;69;20146;-75
2022/01/07 05:33:43;;;;;;;1.92;1.52;;;;;;;-3.19;52.50;92864.59;2075248;69;20301;-73
2022/01/07 05:36:08;;;;;;;2.25;0.80;;;;;;;-3.02;52.32;92867.16;2075190;69;20239;-73
2022/01/07 05:38:34;;;;;;;1.40;1.00;;;;;;;-3.17;53.14;92860.06;2075350;69;20233;-73
2022/01/07 05:40:59;;;;;;;2.13;1.30;;;;;;;-3.18;52.84;92863.34;2075446;69;20144;-69
2022/01/07 05:43:26;;;;;;;3.65;0.90;;;;;;;-2.98;52.02;92859.34;2075421;69;20152;-70
2022/01/07 05:45:52;;;;;;;0.80;0.80;;;;;;;-3.06;52.55;92859.19;2071900;69;20209;-69
2022/01/07 05:48:18;;;;;;;1.15;0.90;;;;;;;-3.28;52.11;92856.69;2075226;69;20139;-69
2022/01/07 05:50:43;;;;;;;1.45;0.90;;;;;;;-3.19;52.45;92864.59;2075137;69;20148;-70
2022/01/07 05:53:10;;;;;;;1.95;0.80;;;;;;;-3.17;52.82;92862.06;2075228;69;20617;-68
2022/01/07 05:55:35;;;;;;;3.03;0.80;;;;;;;-3.38;52.86;92867.31;2075254;69;20143;-69
2022/01/07 05:58:01;;;;;;;1.80;1.10;;;;;;;-3.34;52.51;92876.03;2075260;69;20282;-72
2022/01/07 06:00:27;;;;;;;2.75;1.00;;;;;;;-3.17;51.92;92873.06;2075237;69;20171;-79
2022/01/07 06:02:52;;;;;;;4.68;1.00;;;;;;;-3.28;52.22;92873.97;2075241;69;20180;-77
2022/01/07 06:05:18;;;;;;;3.83;1.00;;;;;;;-3.20;51.83;92874.13;2075215;69;20205;-75
2022/01/07 06:07:43;;;;;;;2.17;1.00;;;;;;;-3.21;52.80;92862.34;2075347;69;20294;-75
2022/01/07 06:10:09;;;;;;;1.63;0.90;;;;;;;-3.44;52.54;92864.59;2075151;69;20135;-75
2022/01/07 06:12:35;;;;;;;1.10;0.98;;;;;;;-3.09;52.58;92866.47;2075178;69;20230;-73
2022/01/07 06:15:01;;;;;;;2.25;0.85;;;;;;;-3.30;52.10;92864.72;2075210;69;20154;-76
2022/01/07 06:17:26;;;;;;;1.40;1.02;;;;;;;-3.34;52.41;92868.53;2075302;69;20599;-80
2022/01/07 06:19:52;;;;;;;1.92;0.98;;;;;;;-3.43;53.23;92860.59;2075168;69;20178;-76
2022/01/07 06:22:18;;;;;;;4.70;1.00;;;;;;;-3.28;52.13;92868.44;2075203;69;20209;-69
2022/01/07 06:24:44;;;;;;;3.55;1.17;;;;;;;-3.33;52.36;92864.50;2075229;69;20570;-69
2022/01/07 06:27:10;;;;;;;3.65;1.58;;;;;;;-3.32;52.70;92859.72;2075190;69;20152;-70
2022/01/07 06:29:37;;;;;;;4.25;1.90;;;;;;;-3.29;51.77;92855.94;2071898;69;20147;-70
2022/01/07 06:32:04;;;;;;;2.17;1.20;;;;;;;-3.31;52.69;92839.19;2075391;69;20179;-78
2022/01/07 06:34:30;;;;;;;3.80;1.52;;;;;;;-3.32;52.21;92845.97;2075190;69;20152;-76
2022/01/07 06:36:58;;;;;;;3.80;1.40;;;;;;;-3.34;52.24;92852.00;2075143;69;20505;-72
2022/01/07 06:39:24;;;;;;;5.55;2.05;;;;;;;-3.57;52.60;92856.25;2075160;69;20171;-77
2022/01/07 06:41:51;;;;;;;3.03;1.63;;;;;;;-3.53;53.08;92844.94;2075156;69;20289;-79
2022/01/07 06:44:17;;;;;;;4.20;1.48;;;;;;;-3.35;52.83;92855.25;2075209;69;20527;-70
2022/01/07 06:46:43;;;;;;;2.95;1.60;;;;;;;-3.50;53.41;92852.91;2075114;69;20156;-70
2022/01/07 06:49:09;;;;;;;3.90;1.35;;;;;;;-3.25;52.84;92852.88;2075113;69;20135;-69
2022/01/07 06:51:35;;;;;;;3.55;1.27;;;;;;;-3.47;52.86;92860.16;2075016;69;20148;-69
2022/01/07 06:54:00;;;;;;;4.35;1.70;;;;;;;-3.25;52.41;92863.91;2075217;69;20606;-70
2022/01/07 06:56:27;;;;;;;2.55;1.30;;;;;;;-3.43;52.98;92857.84;2071795;69;20147;-70
2022/01/07 06:58:53;;;;;;;3.70;1.50;;;;;;;-3.36;53.19;92853.75;2075036;69;20503;-71
2022/01/07 07:01:20;;;;;;;3.83;1.60;;;;;;;-3.44;52.83;92859.09;2075233;69;20217;-72
2022/01/07 07:03:46;;;;;;;2.03;1.50;;;;;;;-3.47;53.11;92851.16;2075170;69;20152;-72
2022/01/07 07:06:12;;;;;;;2.47;1.67;;;;;;;-3.39;52.71;92854.78;2075011;69;20138;-76
2022/01/07 07:08:38;;;;;;;4.32;1.58;;;;;;;-3.37;53.15;92869.53;2075132;69;20221;-77
2022/01/07 07:11:03;;;;;;;3.80;1.42;;;;;;;-3.38;52.81;92867.31;2074907;69;20143;-76
2022/01/07 07:13:29;;;;;;;7.38;1.80;;;;;;;-3.38;53.02;92873.56;2075067;69;20518;-74
2022/01/07 07:15:55;;;;;;;2.90;1.65;;;;;;;-3.32;52.39;92865.97;2075198;69;20147;-79
2022/01/07 07:18:20;;;;;;;4.15;1.90;;;;;;;-3.38;52.26;92862.56;2075132;69;20513;-76
2022/01/07 07:20:46;;;;;;;3.92;1.58;;;;;;;-3.28;52.07;92864.94;2074920;69;20201;-69
2022/01/07 07:23:12;;;;;;;2.78;1.63;;;;;;;-3.36;52.34;92867.53;2074998;69;20144;-70
2022/01/07 07:25:39;;;;;;;26.02;8.93;;;;;;;-3.30;52.73;92867.47;2075040;69;20170;-70
2022/01/07 07:28:05;;;;;;;69.35;21.73;;;;;;;-3.29;52.47;92863.47;2075169;69;20175;-70
2022/01/07 07:30:36;;;;;;;20.08;7.38;;;;;;;-3.27;52.41;92863.69;2075184;69;20235;-70
2022/01/07 07:33:29;;;;;;;8.70;3.40;;;;;;;-3.25;52.88;92861.91;2071647;69;20228;-70
2022/01/07 07:38:40;;;;;;;9.88;2.60;;;;;;;-3.45;52.57;92848.59;2075091;69;20155;-77
2022/01/07 07:41:10;;;;;;;6.38;2.35;;;;;;;-3.22;53.22;92855.34;2074999;69;20521;-77
2022/01/07 07:43:36;;;;;;;11.50;4.28;;;;;;;-3.34;52.07;92854.75;2075021;69;20135;-69
2022/01/07 07:46:03;;;;;;;8.57;2.47;;;;;;;-3.36;52.21;92845.50;2071667;69;20144;-74
2022/01/07 07:48:30;;;;;;;4.90;2.40;;;;;;;-3.20;52.08;92855.59;2074931;69;20175;-70
2022/01/07 07:50:55;;;;;;;6.72;2.80;;;;;;;-3.21;51.93;92850.59;2074815;69;20139;-72
2022/01/07 07:53:21;;;;;;;4.10;2.20;;;;;;;-2.96;52.10;92856.81;2074995;69;20274;-74
2022/01/07 07:55:52;;;;;;;7.38;2.30;;;;;;;-2.87;52.45;92851.69;2074922;69;20151;-74
2022/01/07 07:58:18;;;;;;;6.55;2.70;;;;;;;-3.05;51.72;92848.91;2075079;69;20237;-73
2022/01/07 08:00:45;;;;;;;8.80;3.47;;;;;;;-3.02;51.56;92851.38;2075062;69;20656;-77
2022/01/07 08:03:11;;;;;;;7.85;2.90;;;;;;;-2.84;51.97;92847.13;2075001;69;20140;-76
2022/01/07 08:05:36;;;;;;;5.20;2.65;;;;;;;-2.62;52.04;92851.63;2074942;69;20621;-74
2022/01/07 08:08:02;;;;;;;5.47;2.67;;;;;;;-2.64;51.13;92848.66;2075096;69;20285;-77
2022/01/07 08:10:29;;;;;;;7.10;3.08;;;;;;;-2.49;51.51;92848.19;2075009;69;20171;-73
2022/01/07 08:18:20;;;;;;;5.53;2.50;;;;;;;-2.71;51.51;92849.97;2075046;69;20174;-80
2022/01/07 08:20:45;;;;;;;6.90;3.75;;;;;;;-3.09;51.45;92847.19;2074876;69;20143;-69
2022/01/07 08:23:12;;;;;;;5.97;2.95;;;;;;;-2.44;51.45;92839.81;2075413;69;20148;-69
2022/01/07 08:25:38;;;;;;;7.18;2.80;;;;;;;-2.47;51.08;92837.41;2075510;69;20208;-72
2022/01/07 08:28:05;;;;;;;10.68;2.92;;;;;;;-2.58;50.79;92852.81;2075501;69;20155;-69
2022/01/07 08:30:37;;;;;;;10.88;3.22;;;;;;;-2.29;50.79;92844.91;2072149;69;20156;-78
2022/01/07 08:35:50;;;;;;;28.35;9.90;;;;;;;-2.66;51.61;92834.63;2075524;69;20590;-71
2022/01/07 08:38:16;;;;;;;11.35;4.60;;;;;;;-2.54;51.21;92827.69;2075377;69;20175;-75
2022/01/07 08:40:42;;;;;;;4.90;2.30;;;;;;;-2.71;50.98;92822.41;2075397;69;20191;-76
2022/01/07 08:43:08;;;;;;;4.75;2.28;;;;;;;-2.35;50.76;92824.91;2075396;69;20140;-71
2022/01/07 08:45:34;;;;;;;7.70;2.78;;;;;;;-2.32;50.67;92819.09;2075373;69;20143;-70
2022/01/07 08:48:00;;;;;;;4.80;2.40;;;;;;;-2.07;50.04;92818.97;2075426;69;20171;-77
2022/01/07 08:50:26;;;;;;;4.18;2.25;;;;;;;-1.78;50.31;92822.75;2075310;69;20232;-74
2022/01/07 08:52:53;;;;;;;4.90;2.05;;;;;;;-1.99;49.07;92825.34;2075364;69;20150;-78
2022/01/07 08:55:19;;;;;;;5.18;2.03;;;;;;;-2.10;49.33;92820.03;2075361;69;20140;-79
2022/01/07 08:57:45;;;;;;;3.85;2.00;;;;;;;-1.81;49.08;92818.28;2075370;69;20693;-68
2022/01/07 09:00:12;;;;;;;7.18;2.30;;;;;;;-1.78;48.79;92820.00;2075407;69;20147;-68
2022/01/07 09:02:38;;;;;;;4.45;2.00;;;;;;;-1.70;49.29;92820.09;2075506;69;20160;-69
2022/01/07 09:05:03;;;;;;;3.08;1.90;;;;;;;-1.22;48.27;92813.47;2075283;69;20501;-75
2022/01/07 09:07:29;;;;;;;5.00;1.92;;;;;;;-0.99;47.39;92813.75;2075548;69;20189;-73
2022/01/07 09:09:54;;;;;;;3.45;2.00;;;;;;;-0.74;47.32;92807.97;2075501;69;20158;-75
2022/01/07 09:12:20;;;;;;;6.07;2.35;;;;;;;-0.73;47.26;92801.16;2075491;69;20217;-76
2022/01/07 09:14:46;;;;;;;5.50;2.25;;;;;;;-0.63;46.76;92794.66;2075354;69;20148;-71
2022/01/07 09:17:11;;;;;;;5.45;2.30;;;;;;;-0.41;46.51;92795.41;2075489;69;20239;-73
2022/01/07 09:19:37;;;;;;;4.53;2.13;;;;;;;0.10;46.05;92801.28;2075306;69;20171;-75
2022/01/07 09:22:03;;;;;;;6.80;2.45;;;;;;;0.18;45.32;92802.09;2075363;69;20147;-79
2022/01/07 09:24:29;;;;;;;3.83;2.13;;;;;;;0.27;45.34;92802.88;2075308;69;20628;-74
2022/01/07 09:26:56;;;;;;;8.30;2.85;;;;;;;0.42;46.37;92805.78;2071913;69;20178;-69
2022/01/07 09:29:23;;;;;;;3.53;2.28;;;;;;;0.10;45.63;92809.59;2075323;69;20163;-69
2022/01/07 09:31:52;;;;;;;5.53;2.20;;;;;;;0.30;45.76;92807.34;2075431;69;20292;-69
2022/01/07 09:34:18;;;;;;;9.70;3.15;;;;;;;1.02;45.56;92810.22;2075183;69;20176;-69
2022/01/07 09:36:44;;;;;;;8.18;3.60;;;;;;;0.46;44.16;92808.97;2075183;69;20148;-72
2022/01/07 09:39:09;;;;;;;15.02;5.47;;;;;;;0.70;44.83;92805.06;2075347;69;20152;-78
2022/01/07 09:41:35;;;;;;;6.55;3.58;;;;;;;1.10;46.49;92808.25;2075388;69;20144;-76
2022/01/07 09:44:01;;;;;;;5.32;2.78;;;;;;;1.60;45.66;92803.25;2075280;69;20602;-75
2022/01/07 09:46:27;;;;;;;9.73;4.90;;;;;;;1.63;44.38;92793.84;2075420;69;20232;-73
2022/01/07 09:48:53;;;;;;;7.25;2.78;;;;;;;2.34;43.83;92796.16;2071930;69;20152;-73
2022/01/07 09:51:19;;;;;;;8.90;3.88;;;;;;;2.68;43.63;92782.63;2075105;69;20512;-75
2022/01/07 09:53:45;;;;;;;5.93;3.22;;;;;;;3.21;43.82;92789.41;2075339;69;20586;-75
2022/01/07 09:56:11;;;;;;;9.02;3.10;;;;;;;3.16;42.92;92779.19;2075178;69;20147;-73
2022/01/07 09:58:37;;;;;;;11.07;5.70;;;;;;;2.97;41.66;92768.50;2075176;69;20199;-71
2022/01/07 10:01:05;;;;;;;5.15;2.33;;;;;;;3.33;41.21;92767.47;2075225;69;20144;-72
2022/01/07 10:03:42;;;;;;;9.73;4.22;;;;;;;3.29;39.58;92762.28;2071905;69;20147;-74
2022/01/07 10:06:25;;;;;;;1.88;1.40;;;;;;;4.03;38.48;92758.94;2075106;69;20648;-70
2022/01/07 10:09:02;;;;;;;;;;;;;;;3.44;38.34;92758.72;2075523;69;20621;-69
2022/01/07 10:11:28;;;;;;;3.90;1.90;;;;;;;4.11;38.80;92755.34;2075236;69;20060;-70
2022/01/07 10:14:16;;;;;;;5.95;3.15;;;;;;;3.96;38.90;92756.94;2075212;69;20514;-70
2022/01/07 10:16:51;;;;;;;4.38;1.60;;;;;;;3.85;37.97;92751.06;2075157;69;20232;-73
2022/01/07 10:19:42;;;;;;;4.47;2.45;;;;;;;3.76;39.29;92763.56;2071956;69;20508;-71
2022/01/07 10:22:10;;;;;;;2.65;1.30;;;;;;;3.08;39.41;92756.25;2075342;69;20183;-70
2022/01/07 10:24:55;;;;;;;1.63;0.90;;;;;;;3.25;38.59;92754.31;2075264;69;20148;-70
2022/01/07 10:27:22;;;;;;;3.60;2.30;;;;;;;3.97;39.17;92750.06;2075153;69;20242;-69
2022/01/07 10:29:48;;;;;;;4.50;1.30;;;;;;;5.04;39.00;92748.41;2075109;69;20174;-69
2022/01/07 10:32:27;;;;;;;6.78;3.78;;;;;;;5.80;36.37;92738.41;2075064;69;20132;-70
2022/01/07 10:35:13;;;;;;;4.28;2.38;;;;;;;5.90;34.09;92736.38;2074955;69;20479;-68
2022/01/07 10:38:01;;;;;;;4.55;2.75;;;;;;;5.28;34.26;92730.84;2075216;69;20248;-70
2022/01/07 10:40:29;;;;;;;3.80;1.80;;;;;;;6.27;35.16;92708.50;2075300;69;20144;-68
2022/01/07 10:43:10;;;;;;;2.13;1.30;;;;;;;6.36;33.28;92705.00;2075264;69;20254;-69
2022/01/07 10:45:38;;;;;;;0.70;0.70;;;;;;;6.07;33.67;92702.81;2074870;69;20163;-69
2022/01/07 10:48:06;;;;;;;1.58;1.08;;;;;;;5.83;33.61;92707.25;2075322;69;20164;-70
2022/01/07 10:50:36;;;;;;;4.15;2.00;;;;;;;5.16;33.62;92709.59;2071624;69;20143;-78
2022/01/07 10:53:27;;;;;;;2.28;1.30;;;;;;;5.97;34.67;92709.69;2071674;69;20144;-76
2022/01/07 10:56:11;;;;;;;2.33;1.30;;;;;;;5.26;34.12;92705.56;2071860;69;20143;-75
2022/01/07 10:58:43;;;;;;;2.15;1.10;;;;;;;5.80;34.47;92722.38;2075033;69;20152;-70
2022/01/07 11:01:33;;;;;;;2.80;2.08;;;;;;;4.66;33.33;92713.28;2075098;69;20243;-72
2022/01/07 11:04:01;;;;;;;3.65;2.42;;;;;;;4.27;34.17;92712.16;2075058;69;20252;-70
2022/01/07 11:06:28;;;;;;;6.40;2.33;;;;;;;5.21;35.06;92703.75;2074940;69;20140;-75
2022/01/07 11:08:56;;;;;;;7.22;3.22;;;;;;;4.74;35.07;92697.22;2075038;69;20205;-75
2022/01/07 11:11:23;;;;;;;2.60;1.70;;;;;;;4.74;36.53;92688.09;2075045;69;20219;-75
2022/01/07 11:13:49;;;;;;;5.45;2.03;;;;;;;4.31;34.75;92690.19;2075088;69;20197;-75
2022/01/07 11:16:16;;;;;;;4.68;2.30;;;;;;;4.61;35.79;92682.84;2075084;69;20147;-74
2022/01/07 11:18:44;;;;;;;4.95;2.45;;;;;;;4.30;35.14;92672.69;2074220;69;20160;-78
2022/01/07 11:21:10;;;;;;;4.40;2.10;;;;;;;4.54;34.16;92673.25;2072343;69;20222;-78
2022/01/07 11:23:38;;;;;;;4.38;1.90;;;;;;;4.38;35.33;92661.50;2071673;69;20152;-74
2022/01/07 11:26:06;;;;;;;2.88;1.60;;;;;;;4.82;34.00;92658.09;2071629;69;20176;-73
2022/01/07 11:28:32;;;;;;;3.80;2.30;;;;;;;4.57;35.77;92658.16;2071602;69;20226;-76
2022/01/07 11:31:15;;;;;;;4.80;2.33;;;;;;;3.86;34.98;92653.03;2071674;69;20171;-69
2022/01/07 11:33:41;;;;;;;3.30;2.30;;;;;;;4.31;36.47;92657.47;2072174;69;20172;-69
2022/01/07 11:36:12;;;;;;;6.07;2.00;;;;;;;4.41;36.06;92662.41;2072529;69;20649;-72
2022/01/07 11:38:46;;;;;;;2.13;1.38;;;;;;;3.41;35.50;92657.59;2071641;69;20156;-72
2022/01/07 11:41:35;;;;;;;2.15;1.27;;;;;;;3.70;35.36;92663.53;2071617;69;20132;-70
2022/01/07 11:44:13;;;;;;;2.75;1.40;;;;;;;4.16;34.89;92657.59;2073101;69;20161;-75
2022/01/07 11:46:39;;;;;;;24.98;15.00;;;;;;;3.91;36.23;92659.69;2073736;69;20276;-69